< < Back
Terminal Aerodrome Forecast


Current Version              Previous Versions:   1  2  3  4  5  6  7  8  9  

Terminal Aerodrome Forecast

739
FTUS44 KHUN 251436 AAB
TAFHSV
TAF AMD
KHSV 251436Z 2515/2612 VRB05KT P6SM SCT250
     FM251800 VRB03KT P6SM SCT050
     FM260000 VRB03KT P6SM SKC=

Latest METAR

977
SAUS80 KWBC 252300 RRA
MTRHSV
METAR KHSV 252253Z 30003KT 10SM SCT060 SCT250 30/17 A3001 RMK AO2 SLP154
T03000172


USA.gov is the U.S. government's official web portal to all federal, state and local government web resources and services.